createdAt,value
2023-03-30T19:22:30.582Z,6.99
2023-03-30T19:24:59.250Z,7.26
2023-03-30T19:27:27.631Z,7.04
2023-03-30T19:29:57.650Z,6.92
2023-03-30T19:32:26.257Z,6.84
2023-03-30T19:34:56.457Z,6.78
2023-03-30T19:37:24.942Z,6.72
2023-03-30T19:39:53.531Z,6.64
2023-03-30T19:42:23.240Z,6.60
2023-03-30T19:44:51.723Z,6.51
2023-03-30T19:47:21.648Z,6.43
2023-03-30T19:49:51.351Z,6.37
2023-03-30T19:52:19.731Z,6.35
2023-03-30T19:54:48.219Z,6.31
2023-03-30T19:57:17.072Z,6.30
2023-03-30T19:59:49.482Z,6.26
2023-03-30T20:02:18.578Z,6.24
2023-03-30T20:04:47.791Z,6.26
2023-03-30T20:07:16.595Z,6.29
2023-03-30T20:09:45.666Z,6.31
2023-03-30T20:12:14.061Z,6.33
2023-03-30T20:14:43.862Z,6.33
2023-03-30T20:17:12.362Z,6.32
2023-03-30T20:19:41.053Z,6.33
2023-03-30T20:22:13.002Z,6.34
2023-03-30T20:24:45.080Z,6.32
2023-03-30T20:27:13.654Z,6.30
2023-03-30T20:29:42.344Z,6.30
2023-03-30T20:32:11.033Z,6.31
2023-03-30T20:34:42.793Z,6.29
2023-03-30T20:37:11.272Z,6.27
2023-03-30T20:39:39.657Z,6.27
2023-03-30T20:42:09.678Z,6.27
2023-03-30T20:44:40.833Z,6.27
2023-03-30T20:47:11.349Z,6.29
2023-03-30T20:49:41.942Z,6.29
2023-03-30T20:52:12.000Z,6.28
2023-03-30T20:54:44.617Z,6.27
2023-03-30T20:57:14.006Z,6.26
2023-03-30T20:59:42.780Z,6.24
2023-03-30T21:02:11.869Z,6.23
2023-03-30T21:04:40.614Z,6.25
2023-03-30T21:07:12.631Z,6.26
2023-03-30T21:09:42.237Z,6.26
2023-03-30T21:12:10.668Z,6.29
2023-03-30T21:14:46.188Z,6.31
2023-03-30T21:17:14.665Z,6.31
2023-03-30T21:19:43.337Z,6.30
2023-03-30T21:22:12.629Z,6.25
2023-03-30T21:24:42.962Z,6.18
2023-03-30T21:27:14.102Z,6.12
2023-03-30T21:29:45.139Z,6.09
2023-03-30T21:32:13.924Z,6.07
2023-03-30T21:34:42.716Z,6.05
2023-03-30T21:37:11.169Z,6.02
2023-03-30T21:39:39.985Z,5.97
2023-03-30T21:42:08.372Z,5.93
2023-03-30T21:44:36.947Z,5.86
2023-03-30T21:47:05.533Z,5.81
2023-03-30T21:49:34.528Z,5.78
2023-03-30T21:52:04.246Z,5.77
2023-03-30T21:54:32.820Z,5.74
2023-03-30T21:57:01.328Z,5.74
2023-03-30T21:59:29.991Z,5.73
2023-03-30T22:01:58.477Z,5.69
2023-03-30T22:04:26.843Z,5.65
2023-03-30T22:06:55.228Z,5.61
2023-03-30T22:09:23.816Z,5.56
2023-03-30T22:11:55.787Z,5.52
2023-03-30T22:14:25.483Z,5.49
2023-03-30T22:16:53.964Z,5.44
2023-03-30T22:19:29.215Z,5.39
2023-03-30T22:21:57.890Z,5.37
2023-03-30T22:24:26.371Z,5.36
2023-03-30T22:26:55.676Z,5.37
2023-03-30T22:29:24.062Z,5.38
2023-03-30T22:31:56.104Z,5.39
2023-03-30T22:34:25.115Z,5.39
2023-03-30T22:36:54.622Z,5.39
2023-03-30T22:39:23.819Z,5.39
2023-03-30T22:41:52.420Z,5.40
2023-03-30T22:44:21.705Z,5.42
2023-03-30T22:46:49.985Z,5.45
2023-03-30T22:49:18.580Z,5.47
2023-03-30T22:51:52.806Z,5.47
2023-03-30T22:54:21.999Z,5.50
2023-03-30T22:56:51.406Z,5.52
2023-03-30T22:59:19.980Z,5.54
2023-03-30T23:01:48.360Z,5.56
2023-03-30T23:04:17.450Z,5.56
2023-03-30T23:06:46.235Z,5.56
2023-03-30T23:09:14.816Z,5.57
2023-03-30T23:11:47.811Z,5.59
2023-03-30T23:14:16.495Z,5.59
2023-03-30T23:16:46.607Z,5.57
2023-03-30T23:19:16.230Z,5.56
2023-03-30T23:21:46.036Z,5.55
2023-03-30T23:24:17.078Z,5.55
2023-03-30T23:26:46.790Z,5.52
2023-03-30T23:29:15.166Z,5.54
2023-03-30T23:31:44.674Z,5.51
2023-03-30T23:34:13.672Z,5.52
2023-03-30T23:36:43.687Z,5.53
2023-03-30T23:39:12.288Z,5.43
2023-03-30T23:41:40.964Z,5.36
2023-03-30T23:44:12.309Z,5.36
2023-03-30T23:46:42.102Z,5.34
2023-03-30T23:49:10.708Z,5.29
2023-03-30T23:51:39.507Z,5.26
2023-03-30T23:54:08.087Z,5.19
2023-03-30T23:56:38.116Z,5.23
2023-03-30T23:59:07.003Z,5.22
